aviador You're here:

KSKF Decoded Metar

SAN ANTONIO in TX, USA
Report Time2018-05-25 08:56:00
UTC Time2018-05-25 09:15:29
Flight Rules vfr VFR
Wind150° at 04 kt
W.Decomp.*RWY 15: 4.0 kt HW 0.5 kt LCW
W.Rank150° ranks 1
Current wind is below 150° avg. (8.4)
Visibility9999 m
Phenomena:N/A
Clouds:N/A
Expected CloudBase > 800 ft AGL from Temp-Dew spread
CeilingNone
Temp23°C (ISA +9)
Dew Point21°C (89% RH)
QNH1015 hPa
Density Alt2,041 ft
Elevation689 ft
Report Wrong Elevation
Raw Report
KSKF 250856Z AUTO 15004KT 10SM CLR 23/21 A2997 RMK AO2 SLP141
T02280212 57012 $=

Extra information for KSKF:More info

Metar Taf Metar & Taf Last 4 Metars F.Rules Stats Wind Profile Meteogram Temp Stats Airport Information Weather charts Add Link Nearby VenuesMetar ALERT Operation Metar Decoded Social comments

AIRNAV info for KSKF